LKTB/BRQ METAR and TAF weather

Enter ICAO airport designator
Station Type Date Time Source
LKTB METAR 2019/02/20 17:30 UTC NOAA

LKTB 201730Z 04003KT CAVOK 06/M01 Q1024 NOSIG


Station Type Date Time Source
LKTB Decoded METAR 2019/02/20 17:30 UTC NOAA

Brno / Turany, Czech Republic (LKTB) 49-09N 016-42E 246M
Feb 20, 2019 - 12:30 PM EST / 2019.02.20 1730 UTC
Wind: from the NE (040 degrees) at 3 MPH (3 KT):0
Visibility: greater than 7 mile(s):0
Temperature: 42 F (6 C)
Dew Point: 30 F (-1 C)
Relative Humidity: 60%
Pressure (altimeter): 30.24 in. Hg (1024 hPa)
ob: LKTB 201730Z 04003KT CAVOK 06/M01 Q1024 NOSIG
cycle: 17

Station Type Date Time Source
LKTB TAF 2019/02/20 18:05 UTC NOAA

TAF LKTB 201700Z 2018/2200 29006KT CAVOK
TEMPO 2020/2109 VRB02KT
BECMG 2115/2117 24012KT 9999 BKN030
TEMPO 2118/2200 6000 -RA BKN017


Example: see airport list